sensor_id;sensor_type;location;lat;lon;timestamp;P1;durP1;ratioP1;P2;durP2;ratioP2
50906;SDS011;36882;27.680;85.304;2022-09-16T00:00:46;14.38;;;9.45;;
50906;SDS011;36882;27.680;85.304;2022-09-16T00:05:46;16.80;;;10.48;;
50906;SDS011;36882;27.680;85.304;2022-09-16T00:08:18;16.08;;;10.20;;
50906;SDS011;36882;27.680;85.304;2022-09-16T00:10:48;18.85;;;9.75;;
50906;SDS011;36882;27.680;85.304;2022-09-16T00:13:19;21.02;;;9.85;;
50906;SDS011;36882;27.680;85.304;2022-09-16T00:15:49;17.75;;;10.23;;
50906;SDS011;36882;27.680;85.304;2022-09-16T00:18:19;18.05;;;12.45;;
50906;SDS011;36882;27.680;85.304;2022-09-16T00:20:50;16.55;;;10.90;;
50906;SDS011;36882;27.680;85.304;2022-09-16T00:23:22;12.93;;;9.27;;
50906;SDS011;36882;27.680;85.304;2022-09-16T00:25:52;16.75;;;8.90;;
50906;SDS011;36882;27.680;85.304;2022-09-16T00:28:23;15.23;;;10.70;;
50906;SDS011;36882;27.680;85.304;2022-09-16T00:33:22;14.60;;;10.07;;
50906;SDS011;36882;27.680;85.304;2022-09-16T00:35:52;16.83;;;10.70;;
50906;SDS011;36882;27.680;85.304;2022-09-16T00:38:41;18.30;;;10.60;;
50906;SDS011;36882;27.680;85.304;2022-09-16T00:41:15;18.23;;;10.32;;
50906;SDS011;36882;27.680;85.304;2022-09-16T00:43:47;20.70;;;10.85;;
50906;SDS011;36882;27.680;85.304;2022-09-16T00:46:26;20.30;;;11.20;;
50906;SDS011;36882;27.680;85.304;2022-09-16T00:49:15;21.60;;;11.93;;
50906;SDS011;36882;27.680;85.304;2022-09-16T00:51:50;22.20;;;11.25;;
50906;SDS011;36882;27.680;85.304;2022-09-16T00:54:24;16.63;;;10.75;;
50906;SDS011;36882;27.680;85.304;2022-09-16T00:56:56;16.88;;;10.25;;
50906;SDS011;36882;27.680;85.304;2022-09-16T00:59:30;18.10;;;12.13;;
50906;SDS011;36882;27.680;85.304;2022-09-16T01:02:05;17.85;;;10.77;;
50906;SDS011;36882;27.680;85.304;2022-09-16T01:04:42;16.20;;;11.50;;
50906;SDS011;36882;27.680;85.304;2022-09-16T01:07:21;22.55;;;11.68;;
50906;SDS011;36882;27.680;85.304;2022-09-16T01:09:58;18.17;;;10.57;;
50906;SDS011;36882;27.680;85.304;2022-09-16T01:12:28;16.38;;;11.52;;
50906;SDS011;36882;27.680;85.304;2022-09-16T01:15:00;18.98;;;12.48;;
50906;SDS011;36882;27.680;85.304;2022-09-16T01:17:39;23.50;;;12.73;;
50906;SDS011;36882;27.680;85.304;2022-09-16T01:23:25;17.73;;;12.10;;
50906;SDS011;36882;27.680;85.304;2022-09-16T01:36:18;13.43;;;8.32;;
50906;SDS011;36882;27.680;85.304;2022-09-16T01:38:21;14.48;;;10.43;;
50906;SDS011;36882;27.680;85.304;2022-09-16T01:41:13;14.02;;;10.00;;
50906;SDS011;36882;27.680;85.304;2022-09-16T01:44:01;18.48;;;10.32;;
50906;SDS011;36882;27.680;85.304;2022-09-16T01:46:42;13.90;;;9.30;;
50906;SDS011;36882;27.680;85.304;2022-09-16T01:49:27;14.75;;;11.05;;
50906;SDS011;36882;27.680;85.304;2022-09-16T01:52:14;12.65;;;9.63;;
50906;SDS011;36882;27.680;85.304;2022-09-16T01:55:01;10.85;;;8.60;;
50906;SDS011;36882;27.680;85.304;2022-09-16T02:00:27;11.90;;;7.88;;
50906;SDS011;36882;27.680;85.304;2022-09-16T02:03:04;13.38;;;7.28;;
50906;SDS011;36882;27.680;85.304;2022-09-16T02:05:50;9.52;;;6.63;;
50906;SDS011;36882;27.680;85.304;2022-09-16T02:08:27;9.23;;;6.25;;
50906;SDS011;36882;27.680;85.304;2022-09-16T02:11:02;9.98;;;7.03;;
50906;SDS011;36882;27.680;85.304;2022-09-16T02:13:38;12.13;;;6.68;;
50906;SDS011;36882;27.680;85.304;2022-09-16T02:16:16;11.23;;;8.02;;
50906;SDS011;36882;27.680;85.304;2022-09-16T02:18:55;11.13;;;8.48;;
50906;SDS011;36882;27.680;85.304;2022-09-16T02:21:30;11.70;;;7.28;;
50906;SDS011;36882;27.680;85.304;2022-09-16T02:24:02;15.20;;;8.85;;
50906;SDS011;36882;27.680;85.304;2022-09-16T02:26:37;20.40;;;9.45;;
50906;SDS011;36882;27.680;85.304;2022-09-16T02:29:14;16.65;;;9.45;;
50906;SDS011;36882;27.680;85.304;2022-09-16T02:31:51;10.67;;;6.60;;
50906;SDS011;36882;27.680;85.304;2022-09-16T02:34:27;11.07;;;7.18;;
50906;SDS011;36882;27.680;85.304;2022-09-16T02:37:10;17.73;;;8.40;;
50906;SDS011;36882;27.680;85.304;2022-09-16T02:39:47;14.77;;;8.23;;
50906;SDS011;36882;27.680;85.304;2022-09-16T02:42:22;8.95;;;6.38;;
50906;SDS011;36882;27.680;85.304;2022-09-16T02:44:53;7.45;;;6.10;;
50906;SDS011;36882;27.680;85.304;2022-09-16T02:47:28;10.07;;;7.35;;
50906;SDS011;36882;27.680;85.304;2022-09-16T02:50:27;12.38;;;6.70;;
50906;SDS011;36882;27.680;85.304;2022-09-16T02:53:03;9.55;;;6.32;;
50906;SDS011;36882;27.680;85.304;2022-09-16T02:55:50;11.15;;;6.95;;
50906;SDS011;36882;27.680;85.304;2022-09-16T02:58:26;14.48;;;6.82;;
50906;SDS011;36882;27.680;85.304;2022-09-16T03:00:57;16.85;;;6.68;;
50906;SDS011;36882;27.680;85.304;2022-09-16T03:03:28;8.98;;;6.63;;
50906;SDS011;36882;27.680;85.304;2022-09-16T03:06:09;11.93;;;6.50;;
50906;SDS011;36882;27.680;85.304;2022-09-16T03:08:42;11.80;;;5.55;;
50906;SDS011;36882;27.680;85.304;2022-09-16T03:11:17;7.10;;;5.65;;
50906;SDS011;36882;27.680;85.304;2022-09-16T03:20:13;8.68;;;5.75;;
50906;SDS011;36882;27.680;85.304;2022-09-16T03:28:34;23.10;;;7.25;;
50906;SDS011;36882;27.680;85.304;2022-09-16T03:31:16;25.35;;;8.10;;
50906;SDS011;36882;27.680;85.304;2022-09-16T03:34:03;15.80;;;8.15;;
50906;SDS011;36882;27.680;85.304;2022-09-16T03:36:40;12.30;;;8.57;;
50906;SDS011;36882;27.680;85.304;2022-09-16T03:39:16;13.65;;;8.00;;
50906;SDS011;36882;27.680;85.304;2022-09-16T03:41:46;16.45;;;8.05;;
50906;SDS011;36882;27.680;85.304;2022-09-16T03:44:17;15.93;;;8.13;;
50906;SDS011;36882;27.680;85.304;2022-09-16T03:46:47;14.82;;;8.95;;
50906;SDS011;36882;27.680;85.304;2022-09-16T03:51:46;21.17;;;12.98;;
50906;SDS011;36882;27.680;85.304;2022-09-16T03:54:15;16.77;;;11.43;;
50906;SDS011;36882;27.680;85.304;2022-09-16T03:59:17;19.85;;;12.25;;
50906;SDS011;36882;27.680;85.304;2022-09-16T04:01:47;23.63;;;12.75;;
50906;SDS011;36882;27.680;85.304;2022-09-16T04:04:17;19.35;;;11.63;;
50906;SDS011;36882;27.680;85.304;2022-09-16T04:06:47;17.55;;;10.88;;
50906;SDS011;36882;27.680;85.304;2022-09-16T04:09:17;17.30;;;10.95;;
50906;SDS011;36882;27.680;85.304;2022-09-16T04:14:17;23.90;;;12.73;;
50906;SDS011;36882;27.680;85.304;2022-09-16T04:16:47;23.95;;;14.02;;
50906;SDS011;36882;27.680;85.304;2022-09-16T04:19:17;22.05;;;13.02;;
50906;SDS011;36882;27.680;85.304;2022-09-16T04:21:47;26.80;;;17.30;;
50906;SDS011;36882;27.680;85.304;2022-09-16T04:24:17;23.63;;;16.50;;
50906;SDS011;36882;27.680;85.304;2022-09-16T04:29:16;25.55;;;17.10;;
50906;SDS011;36882;27.680;85.304;2022-09-16T04:34:16;29.48;;;20.33;;
50906;SDS011;36882;27.680;85.304;2022-09-16T04:36:46;28.45;;;20.70;;
50906;SDS011;36882;27.680;85.304;2022-09-16T04:39:16;35.50;;;21.63;;
50906;SDS011;36882;27.680;85.304;2022-09-16T04:41:47;33.92;;;22.55;;
50906;SDS011;36882;27.680;85.304;2022-09-16T04:44:17;34.05;;;21.70;;
50906;SDS011;36882;27.680;85.304;2022-09-16T04:46:47;30.52;;;20.55;;
50906;SDS011;36882;27.680;85.304;2022-09-16T04:49:18;28.17;;;20.65;;
50906;SDS011;36882;27.680;85.304;2022-09-16T04:51:48;32.42;;;18.88;;
50906;SDS011;36882;27.680;85.304;2022-09-16T04:54:20;25.65;;;18.90;;
50906;SDS011;36882;27.680;85.304;2022-09-16T04:56:50;20.95;;;15.05;;
50906;SDS011;36882;27.680;85.304;2022-09-16T04:59:21;20.42;;;14.35;;
50906;SDS011;36882;27.680;85.304;2022-09-16T05:01:51;24.08;;;15.98;;
50906;SDS011;36882;27.680;85.304;2022-09-16T05:04:22;18.50;;;13.90;;
50906;SDS011;36882;27.680;85.304;2022-09-16T05:06:52;20.67;;;12.65;;
50906;SDS011;36882;27.680;85.304;2022-09-16T05:09:22;20.63;;;14.82;;
50906;SDS011;36882;27.680;85.304;2022-09-16T05:11:53;21.58;;;16.92;;
50906;SDS011;36882;27.680;85.304;2022-09-16T05:14:24;21.58;;;14.90;;
50906;SDS011;36882;27.680;85.304;2022-09-16T05:16:55;21.60;;;14.77;;
50906;SDS011;36882;27.680;85.304;2022-09-16T05:19:25;17.67;;;13.88;;
50906;SDS011;36882;27.680;85.304;2022-09-16T05:21:56;17.92;;;13.43;;
50906;SDS011;36882;27.680;85.304;2022-09-16T05:24:26;17.92;;;13.32;;
50906;SDS011;36882;27.680;85.304;2022-09-16T05:26:56;16.50;;;12.80;;
50906;SDS011;36882;27.680;85.304;2022-09-16T05:29:27;15.82;;;12.77;;
50906;SDS011;36882;27.680;85.304;2022-09-16T05:31:57;19.40;;;12.57;;
50906;SDS011;36882;27.680;85.304;2022-09-16T05:34:29;19.05;;;13.38;;
50906;SDS011;36882;27.680;85.304;2022-09-16T05:36:59;18.83;;;13.27;;
50906;SDS011;36882;27.680;85.304;2022-09-16T05:39:30;17.20;;;13.70;;
50906;SDS011;36882;27.680;85.304;2022-09-16T05:42:00;22.75;;;16.55;;
50906;SDS011;36882;27.680;85.304;2022-09-16T05:44:32;16.08;;;12.43;;
50906;SDS011;36882;27.680;85.304;2022-09-16T05:47:02;20.65;;;12.52;;
50906;SDS011;36882;27.680;85.304;2022-09-16T05:49:33;18.17;;;10.48;;
50906;SDS011;36882;27.680;85.304;2022-09-16T05:52:03;15.32;;;11.55;;
50906;SDS011;36882;27.680;85.304;2022-09-16T05:54:34;15.85;;;10.77;;
50906;SDS011;36882;27.680;85.304;2022-09-16T05:57:04;14.57;;;10.40;;
50906;SDS011;36882;27.680;85.304;2022-09-16T05:59:34;13.00;;;8.73;;
50906;SDS011;36882;27.680;85.304;2022-09-16T06:02:05;14.68;;;10.40;;
50906;SDS011;36882;27.680;85.304;2022-09-16T06:04:36;14.48;;;10.88;;
50906;SDS011;36882;27.680;85.304;2022-09-16T06:07:07;13.57;;;10.07;;
50906;SDS011;36882;27.680;85.304;2022-09-16T06:09:38;17.88;;;12.00;;
50906;SDS011;36882;27.680;85.304;2022-09-16T06:12:09;14.95;;;11.52;;
50906;SDS011;36882;27.680;85.304;2022-09-16T06:14:40;15.18;;;11.15;;
50906;SDS011;36882;27.680;85.304;2022-09-16T06:17:10;13.90;;;11.38;;
50906;SDS011;36882;27.680;85.304;2022-09-16T06:19:40;17.60;;;10.63;;
50906;SDS011;36882;27.680;85.304;2022-09-16T06:22:11;13.00;;;9.73;;
50906;SDS011;36882;27.680;85.304;2022-09-16T06:24:41;15.05;;;11.00;;
50906;SDS011;36882;27.680;85.304;2022-09-16T06:27:11;13.02;;;10.13;;
50906;SDS011;36882;27.680;85.304;2022-09-16T06:29:42;14.93;;;10.02;;
50906;SDS011;36882;27.680;85.304;2022-09-16T06:32:12;12.60;;;10.23;;
50906;SDS011;36882;27.680;85.304;2022-09-16T06:34:43;18.83;;;11.30;;
50906;SDS011;36882;27.680;85.304;2022-09-16T06:37:13;9.55;;;7.50;;
50906;SDS011;36882;27.680;85.304;2022-09-16T06:39:44;12.10;;;8.05;;
50906;SDS011;36882;27.680;85.304;2022-09-16T06:42:14;12.27;;;8.50;;
50906;SDS011;36882;27.680;85.304;2022-09-16T06:44:44;13.05;;;9.05;;
50906;SDS011;36882;27.680;85.304;2022-09-16T06:47:15;12.27;;;8.93;;
50906;SDS011;36882;27.680;85.304;2022-09-16T06:49:45;11.25;;;8.18;;
50906;SDS011;36882;27.680;85.304;2022-09-16T06:52:15;18.85;;;9.43;;
50906;SDS011;36882;27.680;85.304;2022-09-16T06:54:46;15.10;;;9.02;;
50906;SDS011;36882;27.680;85.304;2022-09-16T06:57:18;10.02;;;8.52;;
50906;SDS011;36882;27.680;85.304;2022-09-16T06:59:51;19.52;;;9.75;;
50906;SDS011;36882;27.680;85.304;2022-09-16T07:02:21;13.35;;;8.25;;
50906;SDS011;36882;27.680;85.304;2022-09-16T07:04:51;14.48;;;10.35;;
50906;SDS011;36882;27.680;85.304;2022-09-16T07:07:22;14.35;;;7.78;;
50906;SDS011;36882;27.680;85.304;2022-09-16T07:09:52;13.15;;;9.40;;
50906;SDS011;36882;27.680;85.304;2022-09-16T07:12:23;14.70;;;10.32;;
50906;SDS011;36882;27.680;85.304;2022-09-16T07:14:53;16.88;;;10.93;;
50906;SDS011;36882;27.680;85.304;2022-09-16T07:17:24;18.52;;;10.77;;
50906;SDS011;36882;27.680;85.304;2022-09-16T07:19:55;16.75;;;9.18;;
50906;SDS011;36882;27.680;85.304;2022-09-16T07:22:25;18.33;;;10.80;;
50906;SDS011;36882;27.680;85.304;2022-09-16T07:25:00;13.02;;;7.47;;
50906;SDS011;36882;27.680;85.304;2022-09-16T07:27:30;15.07;;;9.90;;
50906;SDS011;36882;27.680;85.304;2022-09-16T07:30:01;12.52;;;8.27;;
50906;SDS011;36882;27.680;85.304;2022-09-16T07:32:34;12.80;;;8.70;;
50906;SDS011;36882;27.680;85.304;2022-09-16T07:35:06;19.58;;;9.52;;
50906;SDS011;36882;27.680;85.304;2022-09-16T07:37:36;16.95;;;8.98;;
50906;SDS011;36882;27.680;85.304;2022-09-16T07:40:08;13.50;;;7.97;;
50906;SDS011;36882;27.680;85.304;2022-09-16T07:42:41;14.20;;;8.63;;
50906;SDS011;36882;27.680;85.304;2022-09-16T07:45:11;15.77;;;10.88;;
50906;SDS011;36882;27.680;85.304;2022-09-16T07:47:42;11.95;;;8.52;;
50906;SDS011;36882;27.680;85.304;2022-09-16T07:50:12;15.98;;;9.90;;
50906;SDS011;36882;27.680;85.304;2022-09-16T07:52:43;16.88;;;8.07;;
50906;SDS011;36882;27.680;85.304;2022-09-16T07:55:13;12.75;;;9.25;;
50906;SDS011;36882;27.680;85.304;2022-09-16T07:57:45;14.52;;;8.00;;
50906;SDS011;36882;27.680;85.304;2022-09-16T08:00:18;12.25;;;6.82;;
50906;SDS011;36882;27.680;85.304;2022-09-16T08:02:49;14.77;;;6.50;;
50906;SDS011;36882;27.680;85.304;2022-09-16T08:05:24;7.93;;;6.35;;
50906;SDS011;36882;27.680;85.304;2022-09-16T08:07:55;10.18;;;6.55;;
50906;SDS011;36882;27.680;85.304;2022-09-16T08:10:25;8.90;;;5.70;;
50906;SDS011;36882;27.680;85.304;2022-09-16T08:19:28;13.10;;;7.00;;
50906;SDS011;36882;27.680;85.304;2022-09-16T08:21:58;9.57;;;6.55;;
50906;SDS011;36882;27.680;85.304;2022-09-16T08:24:29;10.93;;;7.03;;
50906;SDS011;36882;27.680;85.304;2022-09-16T08:27:00;19.52;;;7.07;;
50906;SDS011;36882;27.680;85.304;2022-09-16T08:29:30;10.23;;;6.00;;
50906;SDS011;36882;27.680;85.304;2022-09-16T08:32:01;12.27;;;6.07;;
50906;SDS011;36882;27.680;85.304;2022-09-16T08:34:34;9.95;;;6.38;;
50906;SDS011;36882;27.680;85.304;2022-09-16T08:37:06;11.15;;;5.85;;
50906;SDS011;36882;27.680;85.304;2022-09-16T08:39:37;13.82;;;6.35;;
50906;SDS011;36882;27.680;85.304;2022-09-16T08:45:25;8.93;;;6.03;;
50906;SDS011;36882;27.680;85.304;2022-09-16T08:51:20;8.02;;;5.18;;
50906;SDS011;36882;27.680;85.304;2022-09-16T08:54:00;8.65;;;4.40;;
50906;SDS011;36882;27.680;85.304;2022-09-16T08:56:38;7.53;;;3.95;;
50906;SDS011;36882;27.680;85.304;2022-09-16T08:59:12;11.80;;;4.57;;
50906;SDS011;36882;27.680;85.304;2022-09-16T09:01:54;5.72;;;3.65;;
50906;SDS011;36882;27.680;85.304;2022-09-16T09:04:36;13.05;;;5.47;;
50906;SDS011;36882;27.680;85.304;2022-09-16T09:07:09;11.15;;;4.50;;
50906;SDS011;36882;27.680;85.304;2022-09-16T09:12:49;5.95;;;3.80;;
50906;SDS011;36882;27.680;85.304;2022-09-16T09:15:37;6.38;;;3.75;;
50906;SDS011;36882;27.680;85.304;2022-09-16T09:18:22;8.93;;;4.35;;
50906;SDS011;36882;27.680;85.304;2022-09-16T09:21:16;11.90;;;4.43;;
50906;SDS011;36882;27.680;85.304;2022-09-16T09:24:15;14.63;;;4.90;;
50906;SDS011;36882;27.680;85.304;2022-09-16T09:26:58;6.25;;;3.95;;
50906;SDS011;36882;27.680;85.304;2022-09-16T09:29:38;10.63;;;5.05;;
50906;SDS011;36882;27.680;85.304;2022-09-16T09:32:30;6.43;;;4.68;;
50906;SDS011;36882;27.680;85.304;2022-09-16T09:38:33;10.18;;;4.72;;
50906;SDS011;36882;27.680;85.304;2022-09-16T09:41:20;7.72;;;4.20;;
50906;SDS011;36882;27.680;85.304;2022-09-16T09:47:10;10.93;;;5.25;;
50906;SDS011;36882;27.680;85.304;2022-09-16T09:49:47;9.88;;;5.68;;
50906;SDS011;36882;27.680;85.304;2022-09-16T09:52:24;10.40;;;5.28;;
50906;SDS011;36882;27.680;85.304;2022-09-16T09:55:16;13.82;;;5.57;;
50906;SDS011;36882;27.680;85.304;2022-09-16T09:57:58;14.10;;;7.10;;
50906;SDS011;36882;27.680;85.304;2022-09-16T10:00:50;13.00;;;4.88;;
50906;SDS011;36882;27.680;85.304;2022-09-16T10:03:26;11.45;;;5.22;;
50906;SDS011;36882;27.680;85.304;2022-09-16T10:05:58;13.80;;;6.10;;
50906;SDS011;36882;27.680;85.304;2022-09-16T10:08:30;9.30;;;6.03;;
50906;SDS011;36882;27.680;85.304;2022-09-16T10:11:22;9.80;;;5.55;;
50906;SDS011;36882;27.680;85.304;2022-09-16T10:13:57;9.25;;;5.60;;
50906;SDS011;36882;27.680;85.304;2022-09-16T10:16:36;12.43;;;6.25;;
50906;SDS011;36882;27.680;85.304;2022-09-16T10:19:24;15.35;;;6.72;;
50906;SDS011;36882;27.680;85.304;2022-09-16T10:22:10;13.60;;;4.85;;
50906;SDS011;36882;27.680;85.304;2022-09-16T10:24:53;9.25;;;4.82;;
50906;SDS011;36882;27.680;85.304;2022-09-16T10:27:29;11.13;;;5.55;;
50906;SDS011;36882;27.680;85.304;2022-09-16T10:30:10;13.95;;;5.80;;
50906;SDS011;36882;27.680;85.304;2022-09-16T10:32:58;8.15;;;4.60;;
50906;SDS011;36882;27.680;85.304;2022-09-16T10:35:35;9.95;;;6.40;;
50906;SDS011;36882;27.680;85.304;2022-09-16T10:38:15;9.00;;;4.97;;
50906;SDS011;36882;27.680;85.304;2022-09-16T10:40:58;11.32;;;6.97;;
50906;SDS011;36882;27.680;85.304;2022-09-16T10:43:36;12.48;;;6.93;;
50906;SDS011;36882;27.680;85.304;2022-09-16T10:46:07;11.48;;;7.25;;
50906;SDS011;36882;27.680;85.304;2022-09-16T10:48:44;13.70;;;7.75;;
50906;SDS011;36882;27.680;85.304;2022-09-16T10:51:21;10.15;;;6.20;;
50906;SDS011;36882;27.680;85.304;2022-09-16T10:53:57;12.20;;;7.70;;
50906;SDS011;36882;27.680;85.304;2022-09-16T10:56:32;22.75;;;10.23;;
50906;SDS011;36882;27.680;85.304;2022-09-16T10:59:14;24.48;;;10.98;;
50906;SDS011;36882;27.680;85.304;2022-09-16T11:01:56;17.63;;;10.25;;
50906;SDS011;36882;27.680;85.304;2022-09-16T11:05:02;23.75;;;10.32;;
50906;SDS011;36882;27.680;85.304;2022-09-16T11:07:54;18.27;;;10.52;;
50906;SDS011;36882;27.680;85.304;2022-09-16T11:16:47;18.73;;;9.10;;
50906;SDS011;36882;27.680;85.304;2022-09-16T11:19:33;20.38;;;10.52;;
50906;SDS011;36882;27.680;85.304;2022-09-16T11:25:34;21.25;;;10.57;;
50906;SDS011;36882;27.680;85.304;2022-09-16T11:28:16;15.90;;;10.98;;
50906;SDS011;36882;27.680;85.304;2022-09-16T11:31:16;24.08;;;10.20;;
50906;SDS011;36882;27.680;85.304;2022-09-16T11:34:09;20.52;;;10.18;;
50906;SDS011;36882;27.680;85.304;2022-09-16T11:37:05;17.70;;;8.50;;
50906;SDS011;36882;27.680;85.304;2022-09-16T11:39:56;15.98;;;7.63;;
50906;SDS011;36882;27.680;85.304;2022-09-16T11:43:15;15.63;;;7.90;;
50906;SDS011;36882;27.680;85.304;2022-09-16T11:45:52;18.88;;;10.18;;
50906;SDS011;36882;27.680;85.304;2022-09-16T11:54:59;17.85;;;10.43;;
50906;SDS011;36882;27.680;85.304;2022-09-16T11:57:59;30.02;;;11.07;;
50906;SDS011;36882;27.680;85.304;2022-09-16T12:00:48;20.42;;;9.50;;
50906;SDS011;36882;27.680;85.304;2022-09-16T12:03:33;21.80;;;11.40;;
50906;SDS011;36882;27.680;85.304;2022-09-16T12:06:15;22.42;;;10.18;;
50906;SDS011;36882;27.680;85.304;2022-09-16T12:08:51;14.10;;;9.75;;
50906;SDS011;36882;27.680;85.304;2022-09-16T12:11:30;18.10;;;9.35;;
50906;SDS011;36882;27.680;85.304;2022-09-16T12:14:19;17.95;;;9.52;;
50906;SDS011;36882;27.680;85.304;2022-09-16T12:17:02;19.23;;;13.57;;
50906;SDS011;36882;27.680;85.304;2022-09-16T12:19:41;26.77;;;15.07;;
50906;SDS011;36882;27.680;85.304;2022-09-16T12:22:32;21.25;;;13.18;;
50906;SDS011;36882;27.680;85.304;2022-09-16T12:25:12;21.52;;;12.10;;
50906;SDS011;36882;27.680;85.304;2022-09-16T12:27:49;20.52;;;14.13;;
50906;SDS011;36882;27.680;85.304;2022-09-16T12:30:26;18.85;;;13.55;;
50906;SDS011;36882;27.680;85.304;2022-09-16T12:33:25;30.30;;;13.52;;
50906;SDS011;36882;27.680;85.304;2022-09-16T12:36:03;19.13;;;13.30;;
50906;SDS011;36882;27.680;85.304;2022-09-16T12:38:36;23.38;;;13.38;;
50906;SDS011;36882;27.680;85.304;2022-09-16T12:41:30;21.10;;;12.63;;
50906;SDS011;36882;27.680;85.304;2022-09-16T12:47:34;28.50;;;13.68;;
50906;SDS011;36882;27.680;85.304;2022-09-16T12:53:36;25.65;;;11.80;;
50906;SDS011;36882;27.680;85.304;2022-09-16T13:02:27;21.45;;;8.32;;
50906;SDS011;36882;27.680;85.304;2022-09-16T13:05:13;12.02;;;8.43;;
50906;SDS011;36882;27.680;85.304;2022-09-16T13:07:50;17.48;;;8.90;;
50906;SDS011;36882;27.680;85.304;2022-09-16T13:13:32;30.80;;;10.30;;
50906;SDS011;36882;27.680;85.304;2022-09-16T13:16:06;26.10;;;10.18;;
50906;SDS011;36882;27.680;85.304;2022-09-16T13:18:48;29.60;;;10.77;;
50906;SDS011;36882;27.680;85.304;2022-09-16T13:21:22;29.83;;;11.52;;
50906;SDS011;36882;27.680;85.304;2022-09-16T13:24:02;27.10;;;14.95;;
50906;SDS011;36882;27.680;85.304;2022-09-16T13:26:43;29.67;;;16.10;;
50906;SDS011;36882;27.680;85.304;2022-09-16T13:29:40;27.00;;;16.40;;
50906;SDS011;36882;27.680;85.304;2022-09-16T13:32:35;30.92;;;17.92;;
50906;SDS011;36882;27.680;85.304;2022-09-16T13:37:52;28.63;;;19.10;;
50906;SDS011;36882;27.680;85.304;2022-09-16T13:40:27;37.25;;;18.45;;
50906;SDS011;36882;27.680;85.304;2022-09-16T13:43:13;38.05;;;19.95;;
50906;SDS011;36882;27.680;85.304;2022-09-16T13:45:44;35.40;;;20.98;;
50906;SDS011;36882;27.680;85.304;2022-09-16T13:48:15;38.05;;;20.35;;
50906;SDS011;36882;27.680;85.304;2022-09-16T13:50:53;35.88;;;19.13;;
50906;SDS011;36882;27.680;85.304;2022-09-16T13:53:29;35.33;;;16.65;;
50906;SDS011;36882;27.680;85.304;2022-09-16T13:56:07;26.67;;;15.65;;
50906;SDS011;36882;27.680;85.304;2022-09-16T13:59:03;29.65;;;17.60;;
50906;SDS011;36882;27.680;85.304;2022-09-16T14:07:58;21.83;;;13.77;;
50906;SDS011;36882;27.680;85.304;2022-09-16T14:10:50;20.98;;;13.70;;
50906;SDS011;36882;27.680;85.304;2022-09-16T14:13:33;28.23;;;14.60;;
50906;SDS011;36882;27.680;85.304;2022-09-16T14:19:01;25.50;;;16.63;;
50906;SDS011;36882;27.680;85.304;2022-09-16T14:24:45;23.95;;;13.13;;
50906;SDS011;36882;27.680;85.304;2022-09-16T14:27:33;27.75;;;15.57;;
50906;SDS011;36882;27.680;85.304;2022-09-16T14:32:51;35.05;;;18.02;;
50906;SDS011;36882;27.680;85.304;2022-09-16T14:35:22;27.30;;;17.20;;
50906;SDS011;36882;27.680;85.304;2022-09-16T14:37:58;30.35;;;17.92;;
50906;SDS011;36882;27.680;85.304;2022-09-16T14:40:48;30.58;;;16.02;;
50906;SDS011;36882;27.680;85.304;2022-09-16T14:43:19;28.50;;;15.18;;
50906;SDS011;36882;27.680;85.304;2022-09-16T14:45:53;35.75;;;16.15;;
50906;SDS011;36882;27.680;85.304;2022-09-16T14:48:32;31.20;;;17.88;;
50906;SDS011;36882;27.680;85.304;2022-09-16T14:51:08;34.83;;;15.70;;
50906;SDS011;36882;27.680;85.304;2022-09-16T14:53:54;29.48;;;17.92;;
50906;SDS011;36882;27.680;85.304;2022-09-16T14:56:41;33.17;;;14.73;;
50906;SDS011;36882;27.680;85.304;2022-09-16T14:59:25;29.20;;;17.95;;
50906;SDS011;36882;27.680;85.304;2022-09-16T15:02:03;26.80;;;15.30;;
50906;SDS011;36882;27.680;85.304;2022-09-16T15:04:53;29.48;;;16.58;;
50906;SDS011;36882;27.680;85.304;2022-09-16T15:07:29;23.80;;;14.45;;
50906;SDS011;36882;27.680;85.304;2022-09-16T15:10:24;27.75;;;16.73;;
50906;SDS011;36882;27.680;85.304;2022-09-16T15:13:16;28.35;;;16.35;;
50906;SDS011;36882;27.680;85.304;2022-09-16T15:15:58;27.98;;;15.00;;
50906;SDS011;36882;27.680;85.304;2022-09-16T15:18:38;25.75;;;14.85;;
50906;SDS011;36882;27.680;85.304;2022-09-16T15:23:57;25.98;;;17.10;;
50906;SDS011;36882;27.680;85.304;2022-09-16T15:32:17;44.80;;;21.48;;
50906;SDS011;36882;27.680;85.304;2022-09-16T15:37:47;46.60;;;24.05;;
50906;SDS011;36882;27.680;85.304;2022-09-16T15:40:21;46.03;;;23.08;;
50906;SDS011;36882;27.680;85.304;2022-09-16T15:43:15;35.95;;;23.00;;
50906;SDS011;36882;27.680;85.304;2022-09-16T15:48:52;38.15;;;22.67;;
50906;SDS011;36882;27.680;85.304;2022-09-16T15:51:32;40.97;;;24.20;;
50906;SDS011;36882;27.680;85.304;2022-09-16T15:54:07;39.40;;;24.27;;
50906;SDS011;36882;27.680;85.304;2022-09-16T15:56:54;41.80;;;23.30;;
50906;SDS011;36882;27.680;85.304;2022-09-16T15:59:35;38.78;;;23.30;;
50906;SDS011;36882;27.680;85.304;2022-09-16T16:04:51;73.82;;;24.83;;
50906;SDS011;36882;27.680;85.304;2022-09-16T16:10:13;68.03;;;29.63;;
50906;SDS011;36882;27.680;85.304;2022-09-16T16:12:58;42.50;;;22.98;;
50906;SDS011;36882;27.680;85.304;2022-09-16T16:15:32;34.17;;;22.02;;
50906;SDS011;36882;27.680;85.304;2022-09-16T16:18:06;34.10;;;22.35;;
50906;SDS011;36882;27.680;85.304;2022-09-16T16:20:38;49.55;;;22.45;;
50906;SDS011;36882;27.680;85.304;2022-09-16T16:23:09;34.10;;;21.67;;
50906;SDS011;36882;27.680;85.304;2022-09-16T16:25:40;41.20;;;22.98;;
50906;SDS011;36882;27.680;85.304;2022-09-16T16:28:11;38.13;;;23.90;;
50906;SDS011;36882;27.680;85.304;2022-09-16T16:30:41;44.90;;;21.50;;
50906;SDS011;36882;27.680;85.304;2022-09-16T16:33:12;46.33;;;24.83;;
50906;SDS011;36882;27.680;85.304;2022-09-16T16:35:42;45.58;;;22.50;;
50906;SDS011;36882;27.680;85.304;2022-09-16T16:38:12;40.42;;;23.83;;
50906;SDS011;36882;27.680;85.304;2022-09-16T16:40:48;38.42;;;22.50;;
50906;SDS011;36882;27.680;85.304;2022-09-16T16:43:19;44.33;;;21.65;;
50906;SDS011;36882;27.680;85.304;2022-09-16T16:45:53;40.83;;;22.52;;
50906;SDS011;36882;27.680;85.304;2022-09-16T16:48:26;37.38;;;23.42;;
50906;SDS011;36882;27.680;85.304;2022-09-16T16:50:57;38.92;;;21.55;;
50906;SDS011;36882;27.680;85.304;2022-09-16T16:53:31;40.55;;;21.33;;
50906;SDS011;36882;27.680;85.304;2022-09-16T16:56:02;42.40;;;23.05;;
50906;SDS011;36882;27.680;85.304;2022-09-16T16:58:39;42.47;;;23.65;;
50906;SDS011;36882;27.680;85.304;2022-09-16T17:01:11;44.10;;;24.85;;
50906;SDS011;36882;27.680;85.304;2022-09-16T17:03:44;39.33;;;23.83;;
50906;SDS011;36882;27.680;85.304;2022-09-16T17:06:19;43.42;;;22.27;;
50906;SDS011;36882;27.680;85.304;2022-09-16T17:08:49;59.13;;;27.13;;
50906;SDS011;36882;27.680;85.304;2022-09-16T17:11:20;44.15;;;27.20;;
50906;SDS011;36882;27.680;85.304;2022-09-16T17:13:52;41.30;;;24.55;;
50906;SDS011;36882;27.680;85.304;2022-09-16T17:16:27;48.17;;;26.30;;
50906;SDS011;36882;27.680;85.304;2022-09-16T17:18:59;49.47;;;24.70;;
50906;SDS011;36882;27.680;85.304;2022-09-16T17:21:31;43.88;;;23.88;;
50906;SDS011;36882;27.680;85.304;2022-09-16T17:24:02;45.30;;;23.25;;
50906;SDS011;36882;27.680;85.304;2022-09-16T17:26:33;40.45;;;23.50;;